Reno/Stead Information

FAA: RTS - ICAO: KRTS

Reno/Stead (Airport) Location

State Nevada
County Washoe
City Reno
Reno/Stead (Airport) is 10 miles northwest of Reno, NV.
Latitude 39-40-05.4370N
Longitude 119-52-35.1827W
Elevation 5,050ft

Reno/Stead METARs

METAR KRTS 280055Z AUTO 00000KT 10SM SCT039 14/07 A3041 RMK AO2
Altimeter 30.41"
Temperature 14.0°C (57.2°F)
Wind 0° at 0KT
Clouds scattered at 3,900ft
Visibility 10.0mi
Time observed: 2021-10-28T00:55:00Z

Reno/Stead (Airport) Details

Status Operational
Activation August 1943
Ownership Public
Usage Public
Chart SAN FRANCISCO
ATC on-site No
Beacon schedule sunset-sunrise
Beacon color clear green

Reno/Stead (Airport) Contacts

Owner RENO TAHOE ARPT AUTH
Owner address P.O. BOX 12490, RENO, NV 89510
Owner phone 775-328-6400
Manager SCOTT TAYLOR
Manager address 601 NEVADA HWY, BOULDER CITY, NV 89005
Manager phone (702) 293-8971

Reno/Stead Radio Frequencies

Reno/Stead (Airport) Radio Frequencies

UNICOM 122.7
Common traffic advisory frequency (CTAF) 122.7